Airfield :
LOGIN :

Register | Disclaimer

   EN    FR    IT 

 










Legend :    VFR   Marginal VFR   IFR   Intensive IFR   Very Intensive IFR
Visi :
Ceiling :
>= 8 km
>= 3000ft
5 to 8 km
1000 to 3000 ft
1500m to 5 km
500 to 1000 ft
800 to 1500m
200 to 500 ft
< 800m
< 200 ft
Symbols :   Thunderstorms  Fog  Heavy snow  Heavy precipitations  Wind > 20 kt
SIGMETs :     Misc.  Thunderstorms  Icing  Turbulence  Mountain Waves  Volcanic Ashes







- Airport Elevation : 194 ft
- IATA code : LME
- Download approach charts


LFRM - Le Mans

CURRENT METAR :
  • 230630Z AUTO VRB02KT CAVOK 02/01 Q0998 TEMPO 4000 -SHRA BKN012 SCT015TCU

EXPIRED METARs :
  • 230600Z AUTO VRB02KT 9999 FEW036 SCT110 02/01 Q0998 TEMPO 4000 -SHRA BKN012 SCT015TCU
  • 230530Z AUTO 30003KT 270V340 9999 SCT035 OVC110 03/02 Q0997 TEMPO 4000 -SHRA BKN012 SCT015TCU
  • 230500Z AUTO VRB02KT 9999 FEW006 SCT037 OVC110 03/02 Q0997
  • 230430Z AUTO 22004KT 180V250 9999 -RA SCT039 SCT047 BKN060 03/02 Q0997
  • 230400Z AUTO 27004KT 240V320 9999 FEW042 OVC066 03/02 Q0997

TAF TAF LFRM
Valid from the 23 at 06:00 until the 24 at 06:00 UTC


230500Z 2306/2406 30006KT 9999 SCT030
TEMPO 2306/2309 4000 -SHRA BKN012 SCT015TCU
PROB30
TEMPO 2312/2315 -SHRA SCT020TCU
BECMG 2400/2402 VRB03KT
No reported NOTAMs for that airfield.



MET'MAP, your aeronautical weather chart ! - Copyright ORBIFLY December 2007 - Disclaimer

ORBIFLY MET'MAP TEAM :

Programming & Development : Alexandra Zaïnal
Concept & Development : Baudouin d'Aumeries
Co-Development & Prog : Marc-Olivier Méhu
Technical & hardware support : Manuel Goepfert

Contact : metmap@orbifly.com




SOURCES & CREDITS :

   NOAA